sensor_id;sensor_type;location;lat;lon;timestamp;P1;durP1;ratioP1;P2;durP2;ratioP2
55461;SDS011;41327;45.102;20.624;2023-12-20T00:00:48;11.82;;;5.70;;
55461;SDS011;41327;45.102;20.624;2023-12-20T00:03:14;10.52;;;5.40;;
55461;SDS011;41327;45.102;20.624;2023-12-20T00:05:40;5.65;;;5.15;;
55461;SDS011;41327;45.102;20.624;2023-12-20T00:08:06;5.60;;;4.60;;
55461;SDS011;41327;45.102;20.624;2023-12-20T00:10:31;10.68;;;5.93;;
55461;SDS011;41327;45.102;20.624;2023-12-20T00:12:57;7.00;;;4.55;;
55461;SDS011;41327;45.102;20.624;2023-12-20T00:15:22;5.45;;;4.88;;
55461;SDS011;41327;45.102;20.624;2023-12-20T00:17:48;7.00;;;5.68;;
55461;SDS011;41327;45.102;20.624;2023-12-20T00:20:13;5.18;;;3.63;;
55461;SDS011;41327;45.102;20.624;2023-12-20T00:22:39;3.40;;;2.95;;
55461;SDS011;41327;45.102;20.624;2023-12-20T00:25:05;7.57;;;4.45;;
55461;SDS011;41327;45.102;20.624;2023-12-20T00:27:30;6.93;;;4.45;;
55461;SDS011;41327;45.102;20.624;2023-12-20T00:29:56;4.00;;;3.60;;
55461;SDS011;41327;45.102;20.624;2023-12-20T00:32:21;4.43;;;4.00;;
55461;SDS011;41327;45.102;20.624;2023-12-20T00:34:47;5.80;;;4.20;;
55461;SDS011;41327;45.102;20.624;2023-12-20T00:37:12;4.72;;;4.18;;
55461;SDS011;41327;45.102;20.624;2023-12-20T00:39:38;3.95;;;2.65;;
55461;SDS011;41327;45.102;20.624;2023-12-20T00:42:04;4.45;;;3.53;;
55461;SDS011;41327;45.102;20.624;2023-12-20T00:44:29;7.55;;;5.50;;
55461;SDS011;41327;45.102;20.624;2023-12-20T00:46:55;3.83;;;3.28;;
55461;SDS011;41327;45.102;20.624;2023-12-20T00:49:20;8.25;;;4.82;;
55461;SDS011;41327;45.102;20.624;2023-12-20T00:51:46;5.30;;;4.63;;
55461;SDS011;41327;45.102;20.624;2023-12-20T00:54:13;6.28;;;5.30;;
55461;SDS011;41327;45.102;20.624;2023-12-20T00:56:38;6.25;;;4.45;;
55461;SDS011;41327;45.102;20.624;2023-12-20T00:59:04;4.50;;;4.03;;
55461;SDS011;41327;45.102;20.624;2023-12-20T01:01:29;3.25;;;3.03;;
55461;SDS011;41327;45.102;20.624;2023-12-20T01:03:55;9.00;;;5.03;;
55461;SDS011;41327;45.102;20.624;2023-12-20T01:06:20;4.38;;;4.00;;
55461;SDS011;41327;45.102;20.624;2023-12-20T01:08:46;5.10;;;3.53;;
55461;SDS011;41327;45.102;20.624;2023-12-20T01:11:11;8.15;;;4.63;;
55461;SDS011;41327;45.102;20.624;2023-12-20T01:13:37;5.53;;;4.75;;
55461;SDS011;41327;45.102;20.624;2023-12-20T01:16:02;4.65;;;4.13;;
55461;SDS011;41327;45.102;20.624;2023-12-20T01:18:29;6.10;;;4.85;;
55461;SDS011;41327;45.102;20.624;2023-12-20T01:20:55;7.60;;;4.20;;
55461;SDS011;41327;45.102;20.624;2023-12-20T01:23:20;8.82;;;5.68;;
55461;SDS011;41327;45.102;20.624;2023-12-20T01:25:46;10.18;;;6.88;;
55461;SDS011;41327;45.102;20.624;2023-12-20T01:28:11;10.13;;;4.45;;
55461;SDS011;41327;45.102;20.624;2023-12-20T01:30:37;3.10;;;2.90;;
55461;SDS011;41327;45.102;20.624;2023-12-20T01:33:02;6.82;;;4.75;;
55461;SDS011;41327;45.102;20.624;2023-12-20T01:35:28;10.18;;;4.10;;
55461;SDS011;41327;45.102;20.624;2023-12-20T01:37:53;8.07;;;4.30;;
55461;SDS011;41327;45.102;20.624;2023-12-20T01:40:22;5.20;;;4.53;;
55461;SDS011;41327;45.102;20.624;2023-12-20T01:42:57;3.15;;;2.92;;
55461;SDS011;41327;45.102;20.624;2023-12-20T01:45:26;6.22;;;3.67;;
55461;SDS011;41327;45.102;20.624;2023-12-20T01:47:52;16.45;;;5.60;;
55461;SDS011;41327;45.102;20.624;2023-12-20T01:50:18;10.15;;;4.57;;
55461;SDS011;41327;45.102;20.624;2023-12-20T01:52:44;4.75;;;4.20;;
55461;SDS011;41327;45.102;20.624;2023-12-20T01:55:10;7.78;;;5.45;;
55461;SDS011;41327;45.102;20.624;2023-12-20T01:57:39;8.43;;;5.13;;
55461;SDS011;41327;45.102;20.624;2023-12-20T02:00:08;5.75;;;4.90;;
55461;SDS011;41327;45.102;20.624;2023-12-20T02:02:35;4.50;;;3.45;;
55461;SDS011;41327;45.102;20.624;2023-12-20T02:05:02;5.13;;;4.53;;
55461;SDS011;41327;45.102;20.624;2023-12-20T02:07:29;6.28;;;5.15;;
55461;SDS011;41327;45.102;20.624;2023-12-20T02:09:55;5.35;;;4.07;;
55461;SDS011;41327;45.102;20.624;2023-12-20T02:12:20;5.90;;;4.57;;
55461;SDS011;41327;45.102;20.624;2023-12-20T02:14:46;5.97;;;5.32;;
55461;SDS011;41327;45.102;20.624;2023-12-20T02:17:12;5.53;;;3.70;;
55461;SDS011;41327;45.102;20.624;2023-12-20T02:19:37;5.40;;;4.47;;
55461;SDS011;41327;45.102;20.624;2023-12-20T02:22:10;5.20;;;4.68;;
55461;SDS011;41327;45.102;20.624;2023-12-20T02:24:35;10.70;;;5.32;;
55461;SDS011;41327;45.102;20.624;2023-12-20T02:27:01;6.57;;;5.38;;
55461;SDS011;41327;45.102;20.624;2023-12-20T02:29:27;9.57;;;5.88;;
55461;SDS011;41327;45.102;20.624;2023-12-20T02:31:52;5.28;;;4.78;;
55461;SDS011;41327;45.102;20.624;2023-12-20T02:34:18;4.70;;;4.32;;
55461;SDS011;41327;45.102;20.624;2023-12-20T02:36:43;4.47;;;4.05;;
55461;SDS011;41327;45.102;20.624;2023-12-20T02:39:09;6.03;;;3.45;;
55461;SDS011;41327;45.102;20.624;2023-12-20T02:41:34;14.25;;;4.38;;
55461;SDS011;41327;45.102;20.624;2023-12-20T02:44:01;5.93;;;3.63;;
55461;SDS011;41327;45.102;20.624;2023-12-20T02:46:27;4.72;;;4.25;;
55461;SDS011;41327;45.102;20.624;2023-12-20T02:48:52;7.70;;;5.95;;
55461;SDS011;41327;45.102;20.624;2023-12-20T02:51:18;5.60;;;4.25;;
55461;SDS011;41327;45.102;20.624;2023-12-20T02:53:43;5.97;;;4.43;;
55461;SDS011;41327;45.102;20.624;2023-12-20T02:56:09;5.80;;;4.75;;
55461;SDS011;41327;45.102;20.624;2023-12-20T02:58:34;4.32;;;3.25;;
55461;SDS011;41327;45.102;20.624;2023-12-20T03:01:00;8.65;;;6.05;;
55461;SDS011;41327;45.102;20.624;2023-12-20T03:03:26;5.05;;;4.70;;
55461;SDS011;41327;45.102;20.624;2023-12-20T03:05:51;7.70;;;4.07;;
55461;SDS011;41327;45.102;20.624;2023-12-20T03:08:17;10.48;;;4.88;;
55461;SDS011;41327;45.102;20.624;2023-12-20T03:10:42;4.43;;;3.45;;
55461;SDS011;41327;45.102;20.624;2023-12-20T03:13:08;4.82;;;4.15;;
55461;SDS011;41327;45.102;20.624;2023-12-20T03:15:33;8.55;;;7.53;;
55461;SDS011;41327;45.102;20.624;2023-12-20T03:17:59;4.07;;;3.38;;
55461;SDS011;41327;45.102;20.624;2023-12-20T03:20:24;5.97;;;4.32;;
55461;SDS011;41327;45.102;20.624;2023-12-20T03:22:53;8.65;;;3.90;;
55461;SDS011;41327;45.102;20.624;2023-12-20T03:25:18;6.00;;;5.25;;
55461;SDS011;41327;45.102;20.624;2023-12-20T03:27:44;10.35;;;4.13;;
55461;SDS011;41327;45.102;20.624;2023-12-20T03:30:09;9.50;;;4.97;;
55461;SDS011;41327;45.102;20.624;2023-12-20T03:32:36;4.20;;;3.80;;
55461;SDS011;41327;45.102;20.624;2023-12-20T03:35:03;12.20;;;5.38;;
55461;SDS011;41327;45.102;20.624;2023-12-20T03:37:29;7.93;;;4.78;;
55461;SDS011;41327;45.102;20.624;2023-12-20T03:39:54;7.03;;;5.15;;
55461;SDS011;41327;45.102;20.624;2023-12-20T03:42:20;5.90;;;3.72;;
55461;SDS011;41327;45.102;20.624;2023-12-20T03:44:45;8.23;;;5.97;;
55461;SDS011;41327;45.102;20.624;2023-12-20T03:47:11;5.05;;;3.53;;
55461;SDS011;41327;45.102;20.624;2023-12-20T03:49:36;10.43;;;5.03;;
55461;SDS011;41327;45.102;20.624;2023-12-20T03:52:04;5.25;;;4.68;;
55461;SDS011;41327;45.102;20.624;2023-12-20T03:54:30;6.25;;;5.63;;
55461;SDS011;41327;45.102;20.624;2023-12-20T03:56:55;13.30;;;4.40;;
55461;SDS011;41327;45.102;20.624;2023-12-20T03:59:20;7.20;;;4.80;;
55461;SDS011;41327;45.102;20.624;2023-12-20T04:01:46;7.60;;;4.05;;
55461;SDS011;41327;45.102;20.624;2023-12-20T04:04:12;7.47;;;4.63;;
55461;SDS011;41327;45.102;20.624;2023-12-20T04:06:38;4.53;;;4.13;;
55461;SDS011;41327;45.102;20.624;2023-12-20T04:09:04;5.85;;;4.78;;
55461;SDS011;41327;45.102;20.624;2023-12-20T04:11:29;7.00;;;5.53;;
55461;SDS011;41327;45.102;20.624;2023-12-20T04:13:55;11.25;;;5.03;;
55461;SDS011;41327;45.102;20.624;2023-12-20T04:16:21;5.18;;;3.53;;
55461;SDS011;41327;45.102;20.624;2023-12-20T04:18:46;7.32;;;5.07;;
55461;SDS011;41327;45.102;20.624;2023-12-20T04:21:12;6.32;;;4.93;;
55461;SDS011;41327;45.102;20.624;2023-12-20T04:23:37;10.48;;;3.97;;
55461;SDS011;41327;45.102;20.624;2023-12-20T04:26:03;4.05;;;3.67;;
55461;SDS011;41327;45.102;20.624;2023-12-20T04:28:28;9.13;;;4.90;;
55461;SDS011;41327;45.102;20.624;2023-12-20T04:30:56;4.47;;;4.00;;
55461;SDS011;41327;45.102;20.624;2023-12-20T04:33:22;5.32;;;4.45;;
55461;SDS011;41327;45.102;20.624;2023-12-20T04:35:48;7.85;;;4.30;;
55461;SDS011;41327;45.102;20.624;2023-12-20T04:38:13;6.53;;;4.18;;
55461;SDS011;41327;45.102;20.624;2023-12-20T04:40:39;5.68;;;5.13;;
55461;SDS011;41327;45.102;20.624;2023-12-20T04:43:06;3.63;;;3.25;;
55461;SDS011;41327;45.102;20.624;2023-12-20T04:45:32;3.65;;;3.35;;
55461;SDS011;41327;45.102;20.624;2023-12-20T04:47:58;4.70;;;4.30;;
55461;SDS011;41327;45.102;20.624;2023-12-20T04:50:23;4.68;;;4.32;;
55461;SDS011;41327;45.102;20.624;2023-12-20T04:52:49;9.50;;;4.90;;
55461;SDS011;41327;45.102;20.624;2023-12-20T04:55:14;5.15;;;3.97;;
55461;SDS011;41327;45.102;20.624;2023-12-20T04:57:40;4.15;;;3.75;;
55461;SDS011;41327;45.102;20.624;2023-12-20T05:00:06;5.57;;;4.07;;
55461;SDS011;41327;45.102;20.624;2023-12-20T05:02:34;7.00;;;4.82;;
55461;SDS011;41327;45.102;20.624;2023-12-20T05:05:00;8.52;;;4.13;;
55461;SDS011;41327;45.102;20.624;2023-12-20T05:07:25;5.97;;;3.15;;
55461;SDS011;41327;45.102;20.624;2023-12-20T05:09:51;3.53;;;3.22;;
55461;SDS011;41327;45.102;20.624;2023-12-20T05:12:16;5.93;;;4.28;;
55461;SDS011;41327;45.102;20.624;2023-12-20T05:14:42;4.18;;;3.83;;
55461;SDS011;41327;45.102;20.624;2023-12-20T05:17:07;3.97;;;3.67;;
55461;SDS011;41327;45.102;20.624;2023-12-20T05:19:33;7.07;;;3.83;;
55461;SDS011;41327;45.102;20.624;2023-12-20T05:22:00;5.63;;;4.35;;
55461;SDS011;41327;45.102;20.624;2023-12-20T05:24:27;5.68;;;3.28;;
55461;SDS011;41327;45.102;20.624;2023-12-20T05:26:52;11.05;;;6.63;;
55461;SDS011;41327;45.102;20.624;2023-12-20T05:29:18;6.25;;;3.97;;
55461;SDS011;41327;45.102;20.624;2023-12-20T05:31:43;11.13;;;5.75;;
55461;SDS011;41327;45.102;20.624;2023-12-20T05:34:09;7.43;;;5.07;;
55461;SDS011;41327;45.102;20.624;2023-12-20T05:36:34;10.77;;;6.80;;
55461;SDS011;41327;45.102;20.624;2023-12-20T05:39:01;9.50;;;4.45;;
55461;SDS011;41327;45.102;20.624;2023-12-20T05:41:30;7.57;;;4.47;;
55461;SDS011;41327;45.102;20.624;2023-12-20T05:43:56;5.63;;;5.13;;
55461;SDS011;41327;45.102;20.624;2023-12-20T05:46:23;5.85;;;4.40;;
55461;SDS011;41327;45.102;20.624;2023-12-20T05:48:49;3.78;;;3.25;;
55461;SDS011;41327;45.102;20.624;2023-12-20T05:51:14;7.32;;;4.55;;
55461;SDS011;41327;45.102;20.624;2023-12-20T05:53:40;6.97;;;5.28;;
55461;SDS011;41327;45.102;20.624;2023-12-20T05:56:06;4.75;;;4.22;;
55461;SDS011;41327;45.102;20.624;2023-12-20T05:58:32;8.38;;;6.28;;
55461;SDS011;41327;45.102;20.624;2023-12-20T06:00:58;9.32;;;6.18;;
55461;SDS011;41327;45.102;20.624;2023-12-20T06:03:24;7.43;;;5.13;;
55461;SDS011;41327;45.102;20.624;2023-12-20T06:05:49;10.48;;;5.75;;
55461;SDS011;41327;45.102;20.624;2023-12-20T06:08:15;10.10;;;5.97;;
55461;SDS011;41327;45.102;20.624;2023-12-20T06:10:40;7.13;;;6.20;;
55461;SDS011;41327;45.102;20.624;2023-12-20T06:13:06;5.18;;;4.75;;
55461;SDS011;41327;45.102;20.624;2023-12-20T06:15:32;8.07;;;5.00;;
55461;SDS011;41327;45.102;20.624;2023-12-20T06:17:58;14.73;;;6.63;;
55461;SDS011;41327;45.102;20.624;2023-12-20T06:20:23;10.48;;;6.18;;
55461;SDS011;41327;45.102;20.624;2023-12-20T06:22:50;9.32;;;5.55;;
55461;SDS011;41327;45.102;20.624;2023-12-20T06:25:16;5.82;;;4.15;;
55461;SDS011;41327;45.102;20.624;2023-12-20T06:27:41;8.98;;;5.53;;
55461;SDS011;41327;45.102;20.624;2023-12-20T06:30:07;7.50;;;4.85;;
55461;SDS011;41327;45.102;20.624;2023-12-20T06:32:34;6.53;;;5.80;;
55461;SDS011;41327;45.102;20.624;2023-12-20T06:35:00;6.57;;;5.60;;
55461;SDS011;41327;45.102;20.624;2023-12-20T06:37:26;5.50;;;4.50;;
55461;SDS011;41327;45.102;20.624;2023-12-20T06:39:51;9.70;;;5.55;;
55461;SDS011;41327;45.102;20.624;2023-12-20T06:42:17;15.13;;;6.93;;
55461;SDS011;41327;45.102;20.624;2023-12-20T06:44:42;7.40;;;5.30;;
55461;SDS011;41327;45.102;20.624;2023-12-20T06:47:08;6.97;;;5.78;;
55461;SDS011;41327;45.102;20.624;2023-12-20T06:49:33;7.47;;;6.03;;
55461;SDS011;41327;45.102;20.624;2023-12-20T06:51:59;9.52;;;4.75;;
55461;SDS011;41327;45.102;20.624;2023-12-20T06:54:24;9.95;;;6.22;;
55461;SDS011;41327;45.102;20.624;2023-12-20T06:56:50;11.52;;;7.28;;
55461;SDS011;41327;45.102;20.624;2023-12-20T06:59:15;12.35;;;6.40;;
55461;SDS011;41327;45.102;20.624;2023-12-20T07:01:41;10.43;;;5.40;;
55461;SDS011;41327;45.102;20.624;2023-12-20T07:04:06;8.90;;;6.13;;
55461;SDS011;41327;45.102;20.624;2023-12-20T07:06:32;4.43;;;3.95;;
55461;SDS011;41327;45.102;20.624;2023-12-20T07:08:57;5.55;;;4.82;;
55461;SDS011;41327;45.102;20.624;2023-12-20T07:11:23;9.80;;;4.40;;
55461;SDS011;41327;45.102;20.624;2023-12-20T07:13:49;12.38;;;8.63;;
55461;SDS011;41327;45.102;20.624;2023-12-20T07:16:15;12.63;;;7.25;;
55461;SDS011;41327;45.102;20.624;2023-12-20T07:18:40;9.15;;;6.22;;
55461;SDS011;41327;45.102;20.624;2023-12-20T07:21:06;7.15;;;6.47;;
55461;SDS011;41327;45.102;20.624;2023-12-20T07:23:33;7.03;;;5.68;;
55461;SDS011;41327;45.102;20.624;2023-12-20T07:25:58;8.07;;;5.60;;
55461;SDS011;41327;45.102;20.624;2023-12-20T07:28:27;12.98;;;5.13;;
55461;SDS011;41327;45.102;20.624;2023-12-20T07:30:52;15.27;;;5.47;;
55461;SDS011;41327;45.102;20.624;2023-12-20T07:33:18;11.05;;;5.60;;
55461;SDS011;41327;45.102;20.624;2023-12-20T07:35:43;5.47;;;4.72;;
55461;SDS011;41327;45.102;20.624;2023-12-20T07:38:10;5.78;;;5.30;;
55461;SDS011;41327;45.102;20.624;2023-12-20T07:40:37;5.80;;;5.07;;
55461;SDS011;41327;45.102;20.624;2023-12-20T07:43:03;16.50;;;7.22;;
55461;SDS011;41327;45.102;20.624;2023-12-20T07:45:28;6.88;;;4.25;;
55461;SDS011;41327;45.102;20.624;2023-12-20T07:47:54;22.80;;;7.10;;
55461;SDS011;41327;45.102;20.624;2023-12-20T07:50:19;15.32;;;7.90;;
55461;SDS011;41327;45.102;20.624;2023-12-20T07:52:45;7.50;;;6.80;;
55461;SDS011;41327;45.102;20.624;2023-12-20T07:55:10;19.60;;;11.55;;
55461;SDS011;41327;45.102;20.624;2023-12-20T07:57:36;34.40;;;17.17;;
55461;SDS011;41327;45.102;20.624;2023-12-20T08:00:01;49.28;;;23.65;;
55461;SDS011;41327;45.102;20.624;2023-12-20T08:02:28;52.42;;;22.38;;
55461;SDS011;41327;45.102;20.624;2023-12-20T08:04:54;40.22;;;20.23;;
55461;SDS011;41327;45.102;20.624;2023-12-20T08:07:20;18.90;;;10.82;;
55461;SDS011;41327;45.102;20.624;2023-12-20T08:09:46;14.23;;;11.20;;
55461;SDS011;41327;45.102;20.624;2023-12-20T08:12:11;19.95;;;10.02;;
55461;SDS011;41327;45.102;20.624;2023-12-20T08:14:40;36.55;;;21.60;;
55461;SDS011;41327;45.102;20.624;2023-12-20T08:17:05;31.70;;;15.95;;
55461;SDS011;41327;45.102;20.624;2023-12-20T08:19:31;31.30;;;13.93;;
55461;SDS011;41327;45.102;20.624;2023-12-20T08:21:56;30.27;;;16.02;;
55461;SDS011;41327;45.102;20.624;2023-12-20T08:24:22;31.08;;;15.05;;
55461;SDS011;41327;45.102;20.624;2023-12-20T08:26:47;22.05;;;10.55;;
55461;SDS011;41327;45.102;20.624;2023-12-20T08:29:13;19.50;;;11.27;;
55461;SDS011;41327;45.102;20.624;2023-12-20T08:31:43;26.73;;;16.70;;
55461;SDS011;41327;45.102;20.624;2023-12-20T08:34:09;13.85;;;11.02;;
55461;SDS011;41327;45.102;20.624;2023-12-20T08:36:37;22.42;;;9.77;;
55461;SDS011;41327;45.102;20.624;2023-12-20T08:39:03;16.27;;;11.43;;
55461;SDS011;41327;45.102;20.624;2023-12-20T08:41:31;18.73;;;9.10;;
55461;SDS011;41327;45.102;20.624;2023-12-20T08:43:57;22.55;;;10.05;;
55461;SDS011;41327;45.102;20.624;2023-12-20T08:46:22;19.88;;;9.10;;
55461;SDS011;41327;45.102;20.624;2023-12-20T08:48:48;14.90;;;9.05;;
55461;SDS011;41327;45.102;20.624;2023-12-20T08:51:13;30.58;;;11.73;;
55461;SDS011;41327;45.102;20.624;2023-12-20T08:53:39;16.83;;;11.73;;
55461;SDS011;41327;45.102;20.624;2023-12-20T08:56:04;23.73;;;11.80;;
55461;SDS011;41327;45.102;20.624;2023-12-20T08:58:30;12.85;;;8.35;;
55461;SDS011;41327;45.102;20.624;2023-12-20T09:00:56;14.57;;;7.18;;
55461;SDS011;41327;45.102;20.624;2023-12-20T09:03:22;7.68;;;6.03;;
55461;SDS011;41327;45.102;20.624;2023-12-20T09:05:48;16.00;;;8.45;;
55461;SDS011;41327;45.102;20.624;2023-12-20T09:08:13;14.18;;;9.43;;
55461;SDS011;41327;45.102;20.624;2023-12-20T09:10:38;13.45;;;6.90;;
55461;SDS011;41327;45.102;20.624;2023-12-20T09:13:04;13.35;;;9.77;;
55461;SDS011;41327;45.102;20.624;2023-12-20T09:15:29;14.57;;;9.52;;
55461;SDS011;41327;45.102;20.624;2023-12-20T09:17:55;8.43;;;7.63;;
55461;SDS011;41327;45.102;20.624;2023-12-20T09:20:21;12.75;;;8.45;;
55461;SDS011;41327;45.102;20.624;2023-12-20T09:22:48;20.73;;;8.23;;
55461;SDS011;41327;45.102;20.624;2023-12-20T09:25:14;19.45;;;8.68;;
55461;SDS011;41327;45.102;20.624;2023-12-20T09:27:41;10.75;;;8.63;;
55461;SDS011;41327;45.102;20.624;2023-12-20T09:30:06;17.27;;;10.07;;
55461;SDS011;41327;45.102;20.624;2023-12-20T09:32:32;14.30;;;8.63;;
55461;SDS011;41327;45.102;20.624;2023-12-20T09:34:58;11.52;;;8.68;;
55461;SDS011;41327;45.102;20.624;2023-12-20T09:37:26;9.25;;;7.22;;
55461;SDS011;41327;45.102;20.624;2023-12-20T09:39:52;15.32;;;8.45;;
55461;SDS011;41327;45.102;20.624;2023-12-20T09:42:21;17.92;;;9.30;;
55461;SDS011;41327;45.102;20.624;2023-12-20T09:45:10;14.20;;;9.20;;
55461;SDS011;41327;45.102;20.624;2023-12-20T09:47:39;14.57;;;9.45;;
55461;SDS011;41327;45.102;20.624;2023-12-20T09:50:04;17.10;;;9.70;;
55461;SDS011;41327;45.102;20.624;2023-12-20T09:52:31;14.48;;;8.27;;
55461;SDS011;41327;45.102;20.624;2023-12-20T09:54:57;16.85;;;12.55;;
55461;SDS011;41327;45.102;20.624;2023-12-20T09:57:23;16.63;;;13.13;;
55461;SDS011;41327;45.102;20.624;2023-12-20T09:59:48;26.58;;;16.73;;
55461;SDS011;41327;45.102;20.624;2023-12-20T10:02:14;14.25;;;12.13;;
55461;SDS011;41327;45.102;20.624;2023-12-20T10:04:42;21.40;;;13.73;;
55461;SDS011;41327;45.102;20.624;2023-12-20T10:07:12;20.00;;;14.50;;
55461;SDS011;41327;45.102;20.624;2023-12-20T10:09:38;23.92;;;11.90;;
55461;SDS011;41327;45.102;20.624;2023-12-20T10:12:04;22.17;;;14.60;;
55461;SDS011;41327;45.102;20.624;2023-12-20T10:14:30;22.10;;;12.43;;
55461;SDS011;41327;45.102;20.624;2023-12-20T10:17:04;23.08;;;14.45;;
55461;SDS011;41327;45.102;20.624;2023-12-20T10:19:30;24.10;;;15.40;;
55461;SDS011;41327;45.102;20.624;2023-12-20T10:21:57;26.85;;;13.52;;
55461;SDS011;41327;45.102;20.624;2023-12-20T10:24:24;15.13;;;12.02;;
55461;SDS011;41327;45.102;20.624;2023-12-20T10:27:00;15.30;;;12.27;;
55461;SDS011;41327;45.102;20.624;2023-12-20T10:29:35;20.15;;;14.68;;
55461;SDS011;41327;45.102;20.624;2023-12-20T10:35:06;21.63;;;12.45;;
55461;SDS011;41327;45.102;20.624;2023-12-20T10:37:35;28.85;;;14.43;;
55461;SDS011;41327;45.102;20.624;2023-12-20T10:40:03;27.42;;;14.52;;
55461;SDS011;41327;45.102;20.624;2023-12-20T10:42:31;24.35;;;14.73;;
55461;SDS011;41327;45.102;20.624;2023-12-20T10:44:58;22.50;;;13.60;;
55461;SDS011;41327;45.102;20.624;2023-12-20T10:47:25;21.00;;;13.55;;
55461;SDS011;41327;45.102;20.624;2023-12-20T10:49:52;18.58;;;12.43;;
55461;SDS011;41327;45.102;20.624;2023-12-20T10:52:18;21.20;;;12.50;;
55461;SDS011;41327;45.102;20.624;2023-12-20T10:54:44;22.38;;;15.10;;
55461;SDS011;41327;45.102;20.624;2023-12-20T10:57:10;20.95;;;11.43;;
55461;SDS011;41327;45.102;20.624;2023-12-20T10:59:36;20.08;;;13.07;;
55461;SDS011;41327;45.102;20.624;2023-12-20T11:02:03;24.02;;;14.32;;
55461;SDS011;41327;45.102;20.624;2023-12-20T11:04:55;23.08;;;14.32;;
55461;SDS011;41327;45.102;20.624;2023-12-20T11:07:24;20.75;;;12.15;;
55461;SDS011;41327;45.102;20.624;2023-12-20T11:09:59;20.98;;;13.25;;
55461;SDS011;41327;45.102;20.624;2023-12-20T11:14:57;27.00;;;13.93;;
55461;SDS011;41327;45.102;20.624;2023-12-20T11:17:28;26.27;;;15.40;;
55461;SDS011;41327;45.102;20.624;2023-12-20T11:22:21;36.70;;;23.75;;
55461;SDS011;41327;45.102;20.624;2023-12-20T11:24:48;24.35;;;16.33;;
55461;SDS011;41327;45.102;20.624;2023-12-20T11:27:14;62.95;;;33.55;;
55461;SDS011;41327;45.102;20.624;2023-12-20T11:29:40;27.45;;;18.08;;
55461;SDS011;41327;45.102;20.624;2023-12-20T11:37:22;27.50;;;16.65;;
55461;SDS011;41327;45.102;20.624;2023-12-20T11:40:00;28.33;;;18.15;;
55461;SDS011;41327;45.102;20.624;2023-12-20T11:42:27;28.77;;;17.27;;
55461;SDS011;41327;45.102;20.624;2023-12-20T11:44:53;28.67;;;18.30;;
55461;SDS011;41327;45.102;20.624;2023-12-20T11:47:18;44.13;;;17.80;;
55461;SDS011;41327;45.102;20.624;2023-12-20T11:49:47;32.88;;;18.17;;
55461;SDS011;41327;45.102;20.624;2023-12-20T11:52:13;29.58;;;17.38;;
55461;SDS011;41327;45.102;20.624;2023-12-20T11:54:39;35.65;;;21.38;;
55461;SDS011;41327;45.102;20.624;2023-12-20T11:57:05;28.63;;;15.77;;
55461;SDS011;41327;45.102;20.624;2023-12-20T11:59:30;22.73;;;16.77;;
55461;SDS011;41327;45.102;20.624;2023-12-20T12:01:56;23.02;;;13.40;;
55461;SDS011;41327;45.102;20.624;2023-12-20T12:04:26;22.42;;;16.17;;
55461;SDS011;41327;45.102;20.624;2023-12-20T12:06:52;31.52;;;16.98;;
55461;SDS011;41327;45.102;20.624;2023-12-20T12:09:17;27.80;;;16.20;;
55461;SDS011;41327;45.102;20.624;2023-12-20T12:11:43;27.45;;;17.40;;
55461;SDS011;41327;45.102;20.624;2023-12-20T12:14:09;27.02;;;18.70;;
55461;SDS011;41327;45.102;20.624;2023-12-20T12:16:34;42.42;;;21.77;;
55461;SDS011;41327;45.102;20.624;2023-12-20T12:19:00;44.38;;;21.73;;
55461;SDS011;41327;45.102;20.624;2023-12-20T12:21:25;44.25;;;21.75;;
55461;SDS011;41327;45.102;20.624;2023-12-20T12:23:51;27.00;;;16.50;;
55461;SDS011;41327;45.102;20.624;2023-12-20T12:26:18;26.25;;;17.67;;
55461;SDS011;41327;45.102;20.624;2023-12-20T12:28:44;28.27;;;15.75;;
55461;SDS011;41327;45.102;20.624;2023-12-20T12:31:13;31.15;;;20.60;;
55461;SDS011;41327;45.102;20.624;2023-12-20T12:33:40;29.60;;;15.45;;
55461;SDS011;41327;45.102;20.624;2023-12-20T12:36:07;32.67;;;16.38;;
55461;SDS011;41327;45.102;20.624;2023-12-20T12:38:33;34.38;;;16.83;;
55461;SDS011;41327;45.102;20.624;2023-12-20T12:40:59;21.90;;;15.98;;
55461;SDS011;41327;45.102;20.624;2023-12-20T12:43:25;33.53;;;18.67;;
55461;SDS011;41327;45.102;20.624;2023-12-20T12:45:51;21.98;;;16.17;;
55461;SDS011;41327;45.102;20.624;2023-12-20T12:48:16;24.15;;;18.27;;
55461;SDS011;41327;45.102;20.624;2023-12-20T12:50:42;23.33;;;14.70;;
55461;SDS011;41327;45.102;20.624;2023-12-20T12:53:07;22.67;;;16.27;;
55461;SDS011;41327;45.102;20.624;2023-12-20T12:55:34;27.60;;;16.90;;
55461;SDS011;41327;45.102;20.624;2023-12-20T12:58:00;27.67;;;16.88;;
55461;SDS011;41327;45.102;20.624;2023-12-20T13:00:25;49.63;;;26.63;;
55461;SDS011;41327;45.102;20.624;2023-12-20T13:02:52;47.92;;;23.65;;
55461;SDS011;41327;45.102;20.624;2023-12-20T13:05:18;30.08;;;20.40;;
55461;SDS011;41327;45.102;20.624;2023-12-20T13:07:43;27.40;;;18.25;;
55461;SDS011;41327;45.102;20.624;2023-12-20T13:10:10;36.30;;;23.27;;
55461;SDS011;41327;45.102;20.624;2023-12-20T13:12:36;36.22;;;22.17;;
55461;SDS011;41327;45.102;20.624;2023-12-20T13:15:02;30.65;;;16.73;;
55461;SDS011;41327;45.102;20.624;2023-12-20T13:17:29;41.00;;;23.05;;
55461;SDS011;41327;45.102;20.624;2023-12-20T13:19:55;30.25;;;19.55;;
55461;SDS011;41327;45.102;20.624;2023-12-20T13:22:20;49.28;;;24.17;;
55461;SDS011;41327;45.102;20.624;2023-12-20T13:24:46;28.88;;;19.67;;
55461;SDS011;41327;45.102;20.624;2023-12-20T13:27:11;25.33;;;15.48;;
55461;SDS011;41327;45.102;20.624;2023-12-20T13:29:37;28.30;;;17.77;;
55461;SDS011;41327;45.102;20.624;2023-12-20T13:32:02;35.40;;;18.73;;
55461;SDS011;41327;45.102;20.624;2023-12-20T13:34:29;19.25;;;15.90;;
55461;SDS011;41327;45.102;20.624;2023-12-20T13:36:54;37.30;;;19.80;;
55461;SDS011;41327;45.102;20.624;2023-12-20T13:39:20;28.58;;;15.18;;
55461;SDS011;41327;45.102;20.624;2023-12-20T13:41:46;32.13;;;21.70;;
55461;SDS011;41327;45.102;20.624;2023-12-20T13:44:12;51.97;;;29.45;;
55461;SDS011;41327;45.102;20.624;2023-12-20T13:46:40;32.08;;;18.33;;
55461;SDS011;41327;45.102;20.624;2023-12-20T13:49:06;27.60;;;19.02;;
55461;SDS011;41327;45.102;20.624;2023-12-20T13:51:31;38.47;;;22.88;;
55461;SDS011;41327;45.102;20.624;2023-12-20T13:53:57;35.88;;;21.00;;
55461;SDS011;41327;45.102;20.624;2023-12-20T13:56:22;39.97;;;22.98;;
55461;SDS011;41327;45.102;20.624;2023-12-20T13:58:48;18.67;;;14.20;;
55461;SDS011;41327;45.102;20.624;2023-12-20T14:01:15;48.78;;;29.83;;
55461;SDS011;41327;45.102;20.624;2023-12-20T14:03:43;78.45;;;42.72;;
55461;SDS011;41327;45.102;20.624;2023-12-20T14:06:08;67.18;;;38.65;;
55461;SDS011;41327;45.102;20.624;2023-12-20T14:08:34;73.95;;;34.67;;
55461;SDS011;41327;45.102;20.624;2023-12-20T14:11:01;32.13;;;17.08;;
55461;SDS011;41327;45.102;20.624;2023-12-20T14:13:26;103.63;;;50.35;;
55461;SDS011;41327;45.102;20.624;2023-12-20T14:15:52;29.30;;;20.63;;
55461;SDS011;41327;45.102;20.624;2023-12-20T14:18:19;45.72;;;28.48;;
55461;SDS011;41327;45.102;20.624;2023-12-20T14:20:45;30.80;;;19.55;;
55461;SDS011;41327;45.102;20.624;2023-12-20T14:23:12;25.10;;;18.55;;
55461;SDS011;41327;45.102;20.624;2023-12-20T14:25:40;23.98;;;12.38;;
55461;SDS011;41327;45.102;20.624;2023-12-20T14:28:06;33.58;;;23.83;;
55461;SDS011;41327;45.102;20.624;2023-12-20T14:30:32;41.47;;;26.02;;